KOPF/OPF METAR and TAF weather

Enter ICAO airport designator
Station Type Date Time Source
KOPF METAR 2022/12/05 13:53 UTC NOAA

KOPF 051353Z 34006KT 10SM CLR 23/17 A3010 RMK AO2 SLP193 T02280167


Station Type Date Time Source
KOPF Decoded METAR 2022/12/05 13:53 UTC NOAA

MIAMI OPA LOCKA AIRPORT, FL, United States (KOPF) 25-54N 80-17W 16M
Dec 05, 2022 - 08:53 AM EST / 2022.12.05 1353 UTC
Wind: from the NNW (340 degrees) at 7 MPH (6 KT):0
Visibility: 10 mile(s):0
Sky conditions: clear
Temperature: 73.0 F (22.8 C)
Dew Point: 62.1 F (16.7 C)
Relative Humidity: 68%
Pressure (altimeter): 30.1 in. Hg (1019 hPa)
ob: KOPF 051353Z 34006KT 10SM CLR 23/17 A3010 RMK AO2 SLP193 T02280167
cycle: 14

Station Type Date Time Source
KOPF TAF 2022/12/05 12:24 UTC NOAA

TAF KOPF 051123Z 0512/0612 35005KT P6SM FEW030 SCT045
FM051800 04009KT P6SM FEW030 SCT045
FM060200 VRB04KT P6SM FEW035

Example: see airport list